Overview Statistics Trail Chart Weather Telemetry Raw packets
 

This is the latest recevied weather packets stored in our database for station/object OM5AST-13. If no packets are shown the sender has not sent any weather packets the latest 10 day(s).

<< 21 22 23 24 25 26 27 >>
Time Temp. Humidity Pressure Rain* Wind** Luminosity Snow
1787949835 26.67° C 38% - 0 mm - 0 W/m² -
1787948635 26.67° C 39% - 0 mm - 0 W/m² -
1787947435 27.22° C 38% - 0 mm - 0 W/m² -
1787946235 27.22° C 38% - 0 mm - 0 W/m² -
1787945035 27.22° C 38% - 0 mm - 0 W/m² -
1787943835 27.78° C 37% - 0 mm - 0 W/m² -
1787942635 27.78° C 37% - 0 mm - 0 W/m² -
1787941435 28.33° C 37% - 0 mm - 0 W/m² -
1787940235 28.89° C 36% - 0 mm - 0 W/m² -
1787939035 29.44° C 35% - 0 mm - 0 W/m² -
1787937835 30.56° C 33% - 0 mm - 0 W/m² -
1787936635 32.78° C 30% - 0 mm - 0 W/m² -
1787935435 33.33° C 29% - 0 mm - 0 W/m² -
1787934235 34.44° C 28% - 0 mm - 0 W/m² -
1787933035 35° C 28% - 0 mm - 0 W/m² -
1787931835 33.89° C 30% - 0 mm - 0 W/m² -
1787930635 34.44° C 29% - 0 mm - 0 W/m² -
1787929435 35.56° C 28% - 0 mm - 0 W/m² -
1787928236 35.56° C 28% - 0 mm - 0 W/m² -
1787927035 34.44° C 30% - 0 mm - 0 W/m² -
1787925835 35° C 29% - 0 mm - 0 W/m² -
1787924635 35° C 29% - 0 mm - 0 W/m² -
1787923435 33.89° C 30% - 0 mm - 0 W/m² -
1787922235 33.33° C 30% - 0 mm - 0 W/m² -
1787921035 32.78° C 31% - 0 mm - 0 W/m² -

* Rain latest hour (hover to see other rain measurements)
** Current wind speed in m/s (hover to see current wind gust speed)